Have a Safe July 4th! 

Flight Track Log - Related Links

Times and Time Zones

All times are in EDT time to prevent confusion due to time zone crossing. See the DAL3606 flight status page for this flight to view local times or setup timezone preferences in your user account.

Time Position Orientation Groundspeed Altitude Reporting Facility
EDT Latitude Longitude Course Direction KTS MPH feet Rate Location/Type
Sat 03:32:50 PM 44.8667 -93.1833 65° Northeast 158 182 1,800  Level Minneapolis TRACON
Sat 03:33:46 PM 44.8639 -93.1183 93° East 182 209 3,000 1,641 Climbing Minneapolis Center
Sat 03:34:47 PM 44.8842 -93.0433 69° East 245 282 5,000 1,854 Climbing Minneapolis Center
Sat 03:35:00 PM 44.9776 -92.8300 69° East  Level FlightAware Approximate
Sat 03:35:49 PM 44.9542 -92.9989 24° Northeast 283 326 6,800  Level Minneapolis Center
Sat 03:36:00 PM 45.0125 -92.6992 69° East  Level FlightAware Approximate
Sat 03:36:50 PM 45.0475 -92.9444 22° Northeast 304 350 8,800  Level Minneapolis Center
Sat 03:37:00 PM 45.0514 -92.5708 66° East  Level FlightAware Approximate
Sat 03:37:52 PM 45.0931 -92.8375 59° Northeast 317 365 11,000  Level Minneapolis Center
Sat 03:38:00 PM 45.0913 -92.4428 65° Northeast  Level FlightAware Approximate
Sat 03:38:54 PM 45.1408 -92.7133 61° Northeast 364 419 12,100  Level Minneapolis Center
Sat 03:39:55 PM 45.1844 -92.5739 66° East 390 449 13,400 1,366 Climbing Minneapolis Center
Sat 03:40:57 PM 45.2042 -92.4189 80° East 399 459 14,900 1,463 Climbing Minneapolis Center
Sat 03:41:58 PM 45.2203 -92.2625 82° East 401 461 16,400 1,220 Climbing Minneapolis Center
Sat 03:43:00 PM 45.1942 -92.1078 103° East 406 467 17,400 878 Climbing Minneapolis Center
Sat 03:44:01 PM 45.1739 -91.9819 103° East 408 470 18,200 780 Climbing Minneapolis Center
Sat 03:45:03 PM 45.1372 -91.7608 103° East 412 474 19,000 387 Climbing Minneapolis Center
Sat 03:46:05 PM 45.1114 -91.5978 103° East 420 483 19,000  Level Minneapolis Center
Sat 03:47:06 PM 45.0839 -91.4372 104° East 421 484 19,000 -146 Level Minneapolis Center
Sat 03:48:08 PM 45.0561 -91.2772 104° East 421 484 18,700 -780 Descending Minneapolis Center
Sat 03:49:09 PM 45.0300 -91.1231 103° East 416 479 17,400 -1,122 Descending Minneapolis Center
Sat 03:50:11 PM 45.0006 -90.9772 106° East 401 461 16,400 -976 Descending Minneapolis Center
Sat 03:51:12 PM 44.9725 -90.8344 105° East 388 447 15,400 -1,073 Descending Minneapolis Center
Sat 03:52:14 PM 44.9383 -90.6603 105° East 385 443 14,200 -1,073 Descending Minneapolis Center
Sat 03:53:15 PM 44.9086 -90.5156 106° East 386 444 13,200 -1,610 Descending Minneapolis Center
Sat 03:54:17 PM 44.8789 -90.3664 106° East 381 438 10,900 -1,689 Descending Minneapolis Center
Sat 03:55:30 PM 44.8564 -90.2622 107° East 295 339 9,400 -1,556 Descending Minneapolis Center
Sat 03:56:32 PM 44.8272 -90.1269 107° East 279 321 7,400 -1,839 Descending Minneapolis Center
Sat 03:57:34 PM 44.8047 -90.0236 107° East 282 325 5,600 -1,742 Descending Minneapolis Center

Login

Don't have an account? Register now (free) for customized features, flight alerts, and more!